NATURA VA

 INFORMACIÓN METAR y TAF
METAR FOR LELN
ADDS - METARS form results

(2344 UTC 17 June 2019)
Data provider http://aviationweather.gov/metar/data/
 
METAR text: LELN 172330Z VRB02KT CAVOK 18/01 Q1016
Conditions at: LELN (LEON/VIRGEN CAMI, ES) observed 2330 UTC 17 June 2019
Temperature: 18.0°C (64°F)
Dewpoint: 1.0°C (34°F) [RH = 32%]
Pressure (altimeter): 30.00 inches Hg (1016.0 mb)
Winds: variable direction winds at 2 MPH (2 knots; 1.0 m/s)
Visibility: 6 or more miles (10+ km)
Ceiling: ceiling and visibility are OK
Clouds: unknown
Weather: no significant weather observed at this time

METAR text: LELN 172300Z 21005KT 160V270 CAVOK 19/02 Q1016
Conditions at: LELN (LEON/VIRGEN CAMI, ES) observed 2300 UTC 17 June 2019
Temperature: 19.0°C (66°F)
Dewpoint: 2.0°C (36°F) [RH = 32%]
Pressure (altimeter): 30.00 inches Hg (1016.0 mb)
Winds: from the SSW (210 degrees) at 6 MPH (5 knots; 2.6 m/s)
Visibility: 6 or more miles (10+ km)
Ceiling: ceiling and visibility are OK
Clouds: unknown
Weather: no significant weather observed at this time

Forecast for: LELN (LEON/VIRGEN CAMI, ES)
Text: TAF LELN 171700Z 1718/1803 24010KT CAVOK
Forecast period: 1800 to 2100 UTC 17 June 2019
Forecast type: FROM: standard forecast or significant change
Winds: from the WSW (240 degrees) at 12 MPH (10 knots; 5.1 m/s)
Visibility: 6 or more miles 10+ km)
Ceiling: unknown
Clouds: missing
Weather: NSW  (no significant weather)
Text: TEMPO 1718/1721 26011KT
Forecast period: 1800 to 2100 UTC 17 June 2019
Forecast type: TEMPORARY: The following changes expected for less than half the time period
Winds: from the W (260 degrees) at 13 MPH (11 knots; 5.7 m/s)
Visibility: missing
Ceiling: unknown
Clouds: missing
Weather: no significant weather forecast for this period
Text: BECMG 1721/1722 VRB04KT
Forecast period: 2100 UTC 17 June 2019 to 0300 UTC 18 June 2019
Forecast type: BECOMING: Conditions expected to become as follows by 2200 UTC 17 June 2019
Winds: variable direction winds at 5 MPH (4 knots; 2.1 m/s)
Visibility: 6 or more miles 10+ km)
Ceiling: unknown
Clouds: missing
Weather: NSW  (no significant weather)

 MAPA DE AEROPUERTO

 INFORMACIÓN DE PISTA
Pista 05 Longitud 6890 ft Ancho 148 ft
Elevación 2994 ft Umbral desplazado 0 ft Rumbo de pista 45
Pista 23 Longitud 6890 ft Ancho 148 ft
Elevación 3001 ft Umbral desplazado 0 ft Rumbo de pista 225
Pista 06 Longitud 3609 ft Ancho 328 ft
Elevación 3034 ft Umbral desplazado 0 ft Rumbo de pista 60
Pista 24 Longitud 3609 ft Ancho 328 ft
Elevación 3000 ft Umbral desplazado 0 ft Rumbo de pista 240

 FRECUANCIAS DEL AEROPUERTO
Tipo APP Nombre APP Frecuencia 122.1 MHZ
Tipo TWR Nombre TWR Frecuencia 122.1 MHZ

 RADIO AYUDAS DEL AEROPUERTO
Tipo VOR-DME Nombre Leon Frecuencia 112000 KHZ
Tipo NDB Nombre Leon Frecuencia 330 KHZ



Powered by Virtual Airlines Manager [v2.6.2]